Alabaster, Alabama
Current Conditions -  °F | °C
As of 11:04 AM on Sunday 21 Dec 2014 (Local Time) from KEET Reporting Station
Haze Haze  
Wind Chill:   Ceiling: 700
Heat Index:   Visibility: 5mi
Dew Point:   Wind: 3mph
Humidity: 86%   Direction: NA
Pressure: 30.15"   Gusts: NA
Location:  33.25°N, 86.82°W
Report Text: KEET 211704Z AUTO VRB03KT 5SM BR OVC007 09/07 A3015 RMK AO2 T00940072
Loading
Personal Weather Stations






























Interactive Weather Map New forecast layout! Learn more

10-Day Weather Forecast

Advertisements
Track Severe Weather on mobile